Time;durP1;ratioP1;P1;durP2;ratioP2;P2;SDS_P1;SDS_P2;PMS_P1;PMS_P2;Temp;Humidity;BMP_temperature;BMP_pressure;BME280_temperature;BME280_humidity;BME280_pressure;Samples;Min_cycle;Max_cycle;Signal;HPM_P1;HPM_P2
2023/05/09 00:00:05;;;;;;;6.55;3.65;;;;;;;;;;10423094;28;20044;-78
2023/05/09 00:05:06;;;;;;;5.72;4.00;;;;;;;;;;10411241;28;20056;-78
2023/05/09 00:10:07;;;;;;;4.13;3.63;;;;;;;;;;10428517;28;20029;-79
2023/05/09 00:15:08;;;;;;;11.52;4.60;;;;;;;;;;10429730;28;20038;-78
2023/05/09 00:20:11;;;;;;;4.85;3.83;;;;;;;;;;10428628;28;20032;-78
2023/05/09 00:25:11;;;;;;;4.57;3.65;;;;;;;;;;10399679;28;20045;-79
2023/05/09 00:30:11;;;;;;;5.35;3.75;;;;;;;;;;10415867;28;20543;-78
2023/05/09 00:35:12;;;;;;;5.07;3.80;;;;;;;;;;10428323;28;20495;-79
2023/05/09 00:40:12;;;;;;;6.25;4.15;;;;;;;;;;10428678;28;20056;-79
2023/05/09 00:45:12;;;;;;;5.35;3.90;;;;;;;;;;10428780;28;20105;-79
2023/05/09 00:50:13;;;;;;;4.57;3.60;;;;;;;;;;10412681;28;20030;-79
2023/05/09 00:55:14;;;;;;;7.05;4.63;;;;;;;;;;10377152;28;20124;-79
2023/05/09 01:00:16;;;;;;;6.55;4.00;;;;;;;;;;10394061;28;20052;-79
2023/05/09 01:05:16;;;;;;;8.30;5.03;;;;;;;;;;10387271;28;20151;-78
2023/05/09 01:10:26;;;;;;;7.43;4.35;;;;;;;;;;10390939;28;20027;-78
2023/05/09 01:15:32;;;;;;;6.78;4.45;;;;;;;;;;10426702;28;20375;-77
2023/05/09 01:20:44;;;;;;;6.15;4.57;;;;;;;;;;10426854;28;20470;-78
2023/05/09 01:25:53;;;;;;;8.68;4.63;;;;;;;;;;10409977;28;20041;-78
2023/05/09 01:30:54;;;;;;;7.15;5.18;;;;;;;;;;10426097;28;20009;-78
2023/05/09 01:35:58;;;;;;;10.40;4.28;;;;;;;;;;10427416;28;20067;-79
2023/05/09 01:40:59;;;;;;;5.25;3.67;;;;;;;;;;10426997;28;20107;-79
2023/05/09 01:46:00;;;;;;;7.00;4.65;;;;;;;;;;10425946;28;20474;-78
2023/05/09 01:51:00;;;;;;;5.90;4.15;;;;;;;;;;10425626;28;20089;-78
2023/05/09 01:56:03;;;;;;;5.88;4.05;;;;;;;;;;10425880;28;20490;-80
2023/05/09 02:01:04;;;;;;;6.30;4.18;;;;;;;;;;10425383;28;20025;-78
2023/05/09 02:06:04;;;;;;;5.68;3.40;;;;;;;;;;10426817;28;20359;-79
2023/05/09 02:11:05;;;;;;;5.50;4.13;;;;;;;;;;10407782;28;20383;-79
2023/05/09 02:16:06;;;;;;;5.97;3.53;;;;;;;;;;10424756;28;20498;-77
2023/05/09 02:21:06;;;;;;;5.55;3.80;;;;;;;;;;10407684;28;20494;-78
2023/05/09 02:26:07;;;;;;;5.00;3.83;;;;;;;;;;10403681;28;20048;-80
2023/05/09 02:31:08;;;;;;;8.43;4.78;;;;;;;;;;10426471;28;20021;-80
2023/05/09 02:36:09;;;;;;;6.38;3.75;;;;;;;;;;10426100;28;20047;-80
2023/05/09 02:41:13;;;;;;;5.53;4.72;;;;;;;;;;10425263;28;20031;-79
2023/05/09 02:46:13;;;;;;;6.05;4.43;;;;;;;;;;10423973;28;20022;-80
2023/05/09 02:51:13;;;;;;;7.83;4.67;;;;;;;;;;10426618;28;20490;-80
2023/05/09 02:56:14;;;;;;;9.38;5.32;;;;;;;;;;10426847;28;20021;-81
2023/05/09 03:01:14;;;;;;;5.95;4.47;;;;;;;;;;10408287;28;20108;-80
2023/05/09 03:06:15;;;;;;;6.90;4.40;;;;;;;;;;10425170;28;20362;-81
2023/05/09 03:11:15;;;;;;;6.87;4.70;;;;;;;;;;10424344;28;20768;-81
2023/05/09 03:16:16;;;;;;;7.32;4.70;;;;;;;;;;10402999;28;20781;-80
2023/05/09 03:21:17;;;;;;;9.10;5.97;;;;;;;;;;10391729;28;20021;-80
2023/05/09 03:26:17;;;;;;;7.47;5.80;;;;;;;;;;10415365;28;20761;-79
2023/05/09 03:31:17;;;;;;;9.20;5.73;;;;;;;;;;10423769;28;20375;-80
2023/05/09 03:36:18;;;;;;;7.37;5.80;;;;;;;;;;10413620;28;20029;-78
2023/05/09 03:41:18;;;;;;;10.87;6.27;;;;;;;;;;10424906;28;20021;-77
2023/05/09 03:46:18;;;;;;;9.27;6.13;;;;;;;;;;10428169;28;20045;-79
2023/05/09 03:51:19;;;;;;;11.60;5.72;;;;;;;;;;10412335;28;20112;-78
2023/05/09 03:56:19;;;;;;;9.38;5.63;;;;;;;;;;10428024;28;20512;-78
2023/05/09 04:01:20;;;;;;;10.80;6.43;;;;;;;;;;10410119;28;20021;-80
2023/05/09 04:06:20;;;;;;;10.40;6.57;;;;;;;;;;10430192;28;20078;-79
2023/05/09 04:11:20;;;;;;;8.48;5.60;;;;;;;;;;10405907;28;20021;-78
2023/05/09 04:16:21;;;;;;;8.23;5.85;;;;;;;;;;10406528;28;20028;-77
2023/05/09 04:21:21;;;;;;;12.80;7.93;;;;;;;;;;10403986;28;20501;-78
2023/05/09 04:26:21;;;;;;;10.50;6.47;;;;;;;;;;10422531;28;20299;-79
2023/05/09 04:31:24;;;;;;;15.02;6.82;;;;;;;;;;10399413;28;20017;-79
2023/05/09 04:36:24;;;;;;;10.52;7.28;;;;;;;;;;10394630;28;20060;-79
2023/05/09 04:41:24;;;;;;;8.55;5.82;;;;;;;;;;10393011;28;20021;-78
2023/05/09 04:46:25;;;;;;;7.90;5.80;;;;;;;;;;10404117;28;20402;-78
2023/05/09 04:51:25;;;;;;;10.48;5.35;;;;;;;;;;10424065;28;20056;-78
2023/05/09 04:56:26;;;;;;;11.27;5.68;;;;;;;;;;10408185;28;20035;-78
2023/05/09 05:01:32;;;;;;;5.85;4.07;;;;;;;;;;10421895;28;20024;-78
2023/05/09 05:06:32;;;;;;;6.47;4.07;;;;;;;;;;10380267;28;20080;-77
2023/05/09 05:11:39;;;;;;;4.90;3.10;;;;;;;;;;10424942;28;20466;-78
2023/05/09 05:16:39;;;;;;;5.80;2.92;;;;;;;;;;10464300;28;20432;-76
2023/05/09 05:21:39;;;;;;;7.13;3.30;;;;;;;;;;10430020;28;20048;-76
2023/05/09 05:26:40;;;;;;;5.93;3.13;;;;;;;;;;10424996;28;20380;-78
2023/05/09 05:31:40;;;;;;;4.20;2.00;;;;;;;;;;10425093;28;20036;-76
2023/05/09 05:36:41;;;;;;;2.67;1.70;;;;;;;;;;10423370;28;20021;-77
2023/05/09 05:41:41;;;;;;;3.47;2.10;;;;;;;;;;10407303;28;20020;-76
2023/05/09 05:46:41;;;;;;;2.10;1.85;;;;;;;;;;10425121;28;20657;-77
2023/05/09 05:51:42;;;;;;;3.57;1.63;;;;;;;;;;10423381;28;20379;-76
2023/05/09 05:56:42;;;;;;;2.27;1.53;;;;;;;;;;10422786;28;20430;-77
2023/05/09 06:01:42;;;;;;;4.67;1.90;;;;;;;;;;10422893;28;20116;-76
2023/05/09 06:06:43;;;;;;;2.55;1.20;;;;;;;;;;10408840;28;20030;-77
2023/05/09 06:11:43;;;;;;;1.13;1.00;;;;;;;;;;10410675;28;20021;-78
2023/05/09 06:16:44;;;;;;;1.65;0.80;;;;;;;;;;10410553;28;20371;-76
2023/05/09 06:21:44;;;;;;;5.95;1.00;;;;;;;;;;10446341;28;20016;-77
2023/05/09 06:26:45;;;;;;;1.83;1.00;;;;;;;;;;10450699;28;20045;-76
2023/05/09 06:31:46;;;;;;;1.38;0.80;;;;;;;;;;10422310;28;20084;-77
2023/05/09 06:36:46;;;;;;;2.35;1.10;;;;;;;;;;10422273;28;20577;-77
2023/05/09 06:41:47;;;;;;;1.57;1.10;;;;;;;;;;10422166;28;20051;-76
2023/05/09 06:46:47;;;;;;;1.73;0.90;;;;;;;;;;10422762;28;20475;-76
2023/05/09 06:51:47;;;;;;;0.83;0.67;;;;;;;;;;10421113;28;20025;-76
2023/05/09 06:56:48;;;;;;;1.23;0.85;;;;;;;;;;10404068;28;20056;-76
2023/05/09 07:01:48;;;;;;;1.13;0.90;;;;;;;;;;10421282;28;20060;-76
2023/05/09 07:06:48;;;;;;;5.00;1.13;;;;;;;;;;10421397;28;20549;-76
2023/05/09 07:11:48;;;;;;;2.10;1.00;;;;;;;;;;10419184;28;20450;-76
2023/05/09 07:16:49;;;;;;;4.50;1.35;;;;;;;;;;10430191;28;20035;-76
2023/05/09 07:21:49;;;;;;;4.00;1.53;;;;;;;;;;10429463;28;20493;-76
2023/05/09 07:26:49;;;;;;;1.97;1.10;;;;;;;;;;10428924;28;20665;-77
2023/05/09 07:31:50;;;;;;;2.88;1.30;;;;;;;;;;10411526;28;20275;-77
2023/05/09 07:36:50;;;;;;;4.90;1.08;;;;;;;;;;10430769;28;20040;-77
2023/05/09 07:41:50;;;;;;;2.25;1.50;;;;;;;;;;10428277;28;20051;-77
2023/05/09 07:46:51;;;;;;;1.63;0.70;;;;;;;;;;10409903;28;20036;-77
2023/05/09 07:51:51;;;;;;;3.27;1.10;;;;;;;;;;10428178;28;20779;-77
2023/05/09 07:56:51;;;;;;;1.83;1.13;;;;;;;;;;10429308;28;20029;-77
2023/05/09 08:01:52;;;;;;;4.60;1.00;;;;;;;;;;10428529;28;20033;-76
2023/05/09 08:06:52;;;;;;;0.83;0.80;;;;;;;;;;10409615;28;20099;-77
2023/05/09 08:11:53;;;;;;;4.25;1.05;;;;;;;;;;10410544;28;20025;-76
2023/05/09 08:16:53;;;;;;;1.17;1.00;;;;;;;;;;10409462;28;20047;-76
2023/05/09 08:21:54;;;;;;;2.07;1.30;;;;;;;;;;10425463;28;20106;-77
2023/05/09 08:26:54;;;;;;;2.40;0.60;;;;;;;;;;10408927;28;20041;-76
2023/05/09 08:31:55;;;;;;;1.77;0.80;;;;;;;;;;10426550;28;20732;-77
2023/05/09 08:36:55;;;;;;;0.47;0.37;;;;;;;;;;10407894;28;20024;-77
2023/05/09 08:41:58;;;;;;;0.80;0.55;;;;;;;;;;10406209;28;20017;-77
2023/05/09 08:47:00;;;;;;;7.15;0.90;;;;;;;;;;10408261;28;20056;-77
2023/05/09 08:52:00;;;;;;;1.10;0.80;;;;;;;;;;10424915;28;20025;-77
2023/05/09 08:57:00;;;;;;;1.60;0.67;;;;;;;;;;10424925;28;20669;-77
2023/05/09 09:02:04;;;;;;;1.00;0.43;;;;;;;;;;10424946;28;20031;-77
2023/05/09 09:07:05;;;;;;;1.00;0.90;;;;;;;;;;10425114;28;20108;-78
2023/05/09 09:12:06;;;;;;;0.98;0.50;;;;;;;;;;10426521;28;20447;-77
2023/05/09 09:17:07;;;;;;;0.73;0.73;;;;;;;;;;10428726;28;20406;-78
2023/05/09 09:22:11;;;;;;;1.80;1.17;;;;;;;;;;10431844;28;20108;-78
2023/05/09 09:27:12;;;;;;;2.58;1.27;;;;;;;;;;10406319;28;20060;-77
2023/05/09 09:32:12;;;;;;;1.40;1.10;;;;;;;;;;10405951;28;20111;-76
2023/05/09 09:37:20;;;;;;;4.43;1.00;;;;;;;;;;10424012;28;20251;-77
2023/05/09 09:42:22;;;;;;;1.90;1.50;;;;;;;;;;10405287;28;20176;-79
2023/05/09 09:47:32;;;;;;;1.98;1.20;;;;;;;;;;10406967;28;20540;-79
2023/05/09 09:52:32;;;;;;;2.45;1.35;;;;;;;;;;10404834;28;20029;-77
2023/05/09 09:57:37;;;;;;;2.43;1.27;;;;;;;;;;10431935;28;20379;-78
2023/05/09 10:02:48;;;;;;;1.63;1.30;;;;;;;;;;10458887;28;20025;-77
2023/05/09 10:07:55;;;;;;;2.78;1.20;;;;;;;;;;10405920;28;20025;-78
2023/05/09 10:12:57;;;;;;;2.63;1.50;;;;;;;;;;10423191;28;20032;-77
2023/05/09 10:17:59;;;;;;;1.92;1.30;;;;;;;;;;10404706;28;20028;-77
2023/05/09 10:23:00;;;;;;;1.45;1.08;;;;;;;;;;10404115;28;20387;-77
2023/05/09 10:28:05;;;;;;;2.38;1.77;;;;;;;;;;10422553;28;20490;-76
2023/05/09 10:33:07;;;;;;;2.75;1.85;;;;;;;;;;10423172;28;20411;-78
2023/05/09 10:38:11;;;;;;;4.70;1.67;;;;;;;;;;10404147;28;20021;-76
2023/05/09 10:43:12;;;;;;;5.45;2.30;;;;;;;;;;10402985;28;20025;-78
2023/05/09 10:48:12;;;;;;;2.38;2.03;;;;;;;;;;10422145;28;20077;-77
2023/05/09 10:53:15;;;;;;;1.70;1.55;;;;;;;;;;10396983;28;20071;-78
2023/05/09 10:58:19;;;;;;;3.55;1.95;;;;;;;;;;10401931;28;20082;-76
2023/05/09 11:03:19;;;;;;;2.78;1.92;;;;;;;;;;10421734;28;20021;-79
2023/05/09 11:08:20;;;;;;;3.75;2.17;;;;;;;;;;10403322;28;20032;-78
2023/05/09 11:13:22;;;;;;;4.63;2.77;;;;;;;;;;10421538;28;20411;-78
2023/05/09 11:18:23;;;;;;;2.30;2.10;;;;;;;;;;10385609;28;20709;-78
2023/05/09 11:23:26;;;;;;;4.03;1.97;;;;;;;;;;10418306;28;20021;-77
2023/05/09 11:28:28;;;;;;;4.25;2.20;;;;;;;;;;10421100;28;20084;-76
2023/05/09 11:33:31;;;;;;;3.17;2.15;;;;;;;;;;10404672;28;20070;-78
2023/05/09 11:38:40;;;;;;;7.68;2.40;;;;;;;;;;10392474;28;20038;-78
2023/05/09 11:43:41;;;;;;;3.47;2.30;;;;;;;;;;10380544;28;20036;-79
2023/05/09 11:48:41;;;;;;;3.45;2.38;;;;;;;;;;10388189;28;20044;-76
2023/05/09 11:53:48;;;;;;;6.13;2.73;;;;;;;;;;10403916;28;20091;-78
2023/05/09 11:58:51;;;;;;;3.03;2.40;;;;;;;;;;10427022;28;20462;-78
2023/05/09 12:03:51;;;;;;;6.03;3.75;;;;;;;;;;10428501;28;20426;-78
2023/05/09 12:08:54;;;;;;;4.97;2.97;;;;;;;;;;10428107;28;20065;-78
2023/05/09 12:13:54;;;;;;;6.50;3.45;;;;;;;;;;10427474;28;20459;-77
2023/05/09 12:18:55;;;;;;;8.18;3.20;;;;;;;;;;10428152;28;20107;-76
2023/05/09 12:23:56;;;;;;;6.33;3.00;;;;;;;;;;10428811;28;20068;-77
2023/05/09 12:28:56;;;;;;;7.22;3.22;;;;;;;;;;10440480;28;20056;-76
2023/05/09 12:33:56;;;;;;;5.97;3.73;;;;;;;;;;10444243;28;20036;-80
2023/05/09 12:38:57;;;;;;;4.40;2.63;;;;;;;;;;10431860;28;20033;-81
2023/05/09 12:43:57;;;;;;;5.60;2.40;;;;;;;;;;10416600;28;20025;-80
2023/05/09 12:48:58;;;;;;;5.77;3.03;;;;;;;;;;10418258;28;20115;-80
2023/05/09 12:54:02;;;;;;;4.65;3.55;;;;;;;;;;10403991;28;20034;-79
2023/05/09 12:59:13;;;;;;;4.65;3.00;;;;;;;;;;10404068;28;20029;-80
2023/05/09 13:04:16;;;;;;;6.03;3.50;;;;;;;;;;10417451;28;20413;-78
2023/05/09 13:09:23;;;;;;;3.95;2.97;;;;;;;;;;10403554;28;20033;-77
2023/05/09 13:14:24;;;;;;;5.75;3.22;;;;;;;;;;10407088;28;20074;-78
2023/05/09 13:19:24;;;;;;;4.80;2.63;;;;;;;;;;10385320;28;20032;-77
2023/05/09 13:24:24;;;;;;;5.10;3.03;;;;;;;;;;10423818;28;20389;-78
2023/05/09 13:29:25;;;;;;;4.97;2.67;;;;;;;;;;10405919;28;20303;-76
2023/05/09 13:34:25;;;;;;;5.57;3.10;;;;;;;;;;10395677;28;20022;-76
2023/05/09 13:39:25;;;;;;;5.13;3.00;;;;;;;;;;10421569;28;20324;-76
2023/05/09 13:44:25;;;;;;;4.80;2.93;;;;;;;;;;10424713;28;20033;-76
2023/05/09 13:49:28;;;;;;;4.90;2.70;;;;;;;;;;10422787;28;20125;-76
2023/05/09 13:54:33;;;;;;;5.53;3.55;;;;;;;;;;10419062;28;20025;-75
2023/05/09 13:59:34;;;;;;;3.10;2.33;;;;;;;;;;10382431;28;20061;-75
2023/05/09 14:04:35;;;;;;;8.30;2.88;;;;;;;;;;10417638;28;20104;-77
2023/05/09 14:09:38;;;;;;;4.13;3.00;;;;;;;;;;10405087;28;20040;-77
2023/05/09 14:14:38;;;;;;;10.07;3.40;;;;;;;;;;10404359;28;20025;-77
2023/05/09 14:19:39;;;;;;;5.22;3.30;;;;;;;;;;10421170;28;20032;-78
2023/05/09 14:24:39;;;;;;;5.07;3.00;;;;;;;;;;10422876;28;20823;-77
2023/05/09 14:29:40;;;;;;;6.13;2.40;;;;;;;;;;10404749;28;20035;-76
2023/05/09 14:34:40;;;;;;;4.15;2.50;;;;;;;;;;10422074;28;20028;-76
2023/05/09 14:39:42;;;;;;;4.10;2.60;;;;;;;;;;10422687;28;20497;-77
2023/05/09 14:44:43;;;;;;;3.70;2.13;;;;;;;;;;10421873;28;20051;-77
2023/05/09 14:49:44;;;;;;;3.25;2.28;;;;;;;;;;10421835;28;20029;-76
2023/05/09 14:54:44;;;;;;;2.67;2.15;;;;;;;;;;10421576;28;20407;-76
2023/05/09 14:59:44;;;;;;;2.85;1.70;;;;;;;;;;10403510;28;20029;-76
2023/05/09 15:04:45;;;;;;;3.33;2.13;;;;;;;;;;10403440;28;20048;-76
2023/05/09 15:09:45;;;;;;;3.80;2.28;;;;;;;;;;10420708;28;20039;-77
2023/05/09 15:14:45;;;;;;;2.80;1.97;;;;;;;;;;10422018;28;20029;-76
2023/05/09 15:19:46;;;;;;;2.90;1.93;;;;;;;;;;10393750;28;20063;-77
2023/05/09 15:24:46;;;;;;;2.43;1.63;;;;;;;;;;10392621;28;20053;-76
2023/05/09 15:29:47;;;;;;;3.33;1.67;;;;;;;;;;10405438;28;20540;-76
2023/05/09 15:34:47;;;;;;;3.28;1.70;;;;;;;;;;10429398;28;20033;-77
2023/05/09 15:39:47;;;;;;;3.83;1.60;;;;;;;;;;10429028;28;20029;-76
2023/05/09 15:44:47;;;;;;;1.88;1.40;;;;;;;;;;10428544;28;20461;-77
2023/05/09 15:49:48;;;;;;;2.30;1.57;;;;;;;;;;10427615;28;20375;-75
2023/05/09 15:54:48;;;;;;;4.38;1.58;;;;;;;;;;10428670;28;20033;-76
2023/05/09 15:59:49;;;;;;;2.20;1.30;;;;;;;;;;10427815;28;20091;-77
2023/05/09 16:04:49;;;;;;;3.33;1.58;;;;;;;;;;10423288;28;20064;-77
2023/05/09 16:09:51;;;;;;;2.75;1.67;;;;;;;;;;10401137;28;20032;-76
2023/05/09 16:14:51;;;;;;;3.65;1.92;;;;;;;;;;10427602;28;20028;-76
2023/05/09 16:19:53;;;;;;;3.03;1.85;;;;;;;;;;10428142;28;20657;-76
2023/05/09 16:24:54;;;;;;;2.35;1.55;;;;;;;;;;10426350;28;20400;-77
2023/05/09 16:29:54;;;;;;;3.40;1.70;;;;;;;;;;10409210;28;20028;-77
2023/05/09 16:34:54;;;;;;;2.80;1.60;;;;;;;;;;10409115;28;20021;-76
2023/05/09 16:39:58;;;;;;;6.25;1.92;;;;;;;;;;10425972;28;20021;-75
2023/05/09 16:44:58;;;;;;;1.98;1.35;;;;;;;;;;10404062;28;20048;-75
2023/05/09 16:49:59;;;;;;;5.73;1.93;;;;;;;;;;10406972;28;20418;-75
2023/05/09 16:54:59;;;;;;;1.73;1.63;;;;;;;;;;10402665;28;20421;-73
2023/05/09 16:59:59;;;;;;;3.85;1.52;;;;;;;;;;10387761;28;20021;-74
2023/05/09 17:05:00;;;;;;;2.13;1.58;;;;;;;;;;10408842;28;20036;-73
2023/05/09 17:10:00;;;;;;;6.87;1.47;;;;;;;;;;10388612;28;20019;-73
2023/05/09 17:15:01;;;;;;;2.75;1.83;;;;;;;;;;10381840;28;20369;-73
2023/05/09 17:20:01;;;;;;;4.13;1.77;;;;;;;;;;10381525;28;20026;-74
2023/05/09 17:25:02;;;;;;;3.00;2.17;;;;;;;;;;10368051;28;20319;-74
2023/05/09 17:30:02;;;;;;;2.83;2.00;;;;;;;;;;10398981;28;20032;-73
2023/05/09 17:35:03;;;;;;;3.65;2.20;;;;;;;;;;10404924;28;20103;-73
2023/05/09 17:40:04;;;;;;;3.88;2.47;;;;;;;;;;10409702;28;20395;-74
2023/05/09 17:45:05;;;;;;;4.80;2.45;;;;;;;;;;10403759;28;20403;-74
2023/05/09 17:50:06;;;;;;;4.30;2.65;;;;;;;;;;10418667;28;20091;-74
2023/05/09 17:55:07;;;;;;;4.25;3.03;;;;;;;;;;10413060;28;20044;-74
2023/05/09 18:00:08;;;;;;;5.13;2.72;;;;;;;;;;10401802;28;20029;-74
2023/05/09 18:05:09;;;;;;;3.20;2.50;;;;;;;;;;10401498;28;20021;-74
2023/05/09 18:10:09;;;;;;;3.85;2.80;;;;;;;;;;10406860;28;20074;-74
2023/05/09 18:15:10;;;;;;;7.10;2.45;;;;;;;;;;10388805;28;20079;-75
2023/05/09 18:20:10;;;;;;;6.95;2.88;;;;;;;;;;10404647;28;20013;-74
2023/05/09 18:25:11;;;;;;;6.93;2.97;;;;;;;;;;10403564;28;20040;-73
2023/05/09 18:30:11;;;;;;;6.77;3.10;;;;;;;;;;10421955;28;20021;-74
2023/05/09 18:35:11;;;;;;;7.25;3.70;;;;;;;;;;10422898;28;20044;-73
2023/05/09 18:40:14;;;;;;;9.65;5.18;;;;;;;;;;10422644;28;20032;-74
2023/05/09 18:45:14;;;;;;;6.88;4.07;;;;;;;;;;10421295;28;20017;-74
2023/05/09 18:50:16;;;;;;;4.75;2.55;;;;;;;;;;10404934;28;20494;-74
2023/05/09 18:55:18;;;;;;;5.65;2.63;;;;;;;;;;10404125;28;20131;-74
2023/05/09 19:00:18;;;;;;;5.70;3.15;;;;;;;;;;10435197;28;20009;-74
2023/05/09 19:05:19;;;;;;;6.23;3.83;;;;;;;;;;10405057;28;20024;-73
2023/05/09 19:10:19;;;;;;;10.67;3.70;;;;;;;;;;10413219;28;20025;-74
2023/05/09 19:15:21;;;;;;;7.88;4.97;;;;;;;;;;10428910;28;20066;-73
2023/05/09 19:20:21;;;;;;;7.68;3.90;;;;;;;;;;10429893;28;20536;-73
2023/05/09 19:25:21;;;;;;;6.77;4.73;;;;;;;;;;10411037;28;20161;-73
2023/05/09 19:30:21;;;;;;;6.77;4.03;;;;;;;;;;10411039;28;20024;-73
2023/05/09 19:35:22;;;;;;;9.43;4.60;;;;;;;;;;10429277;28;20017;-73
2023/05/09 19:40:22;;;;;;;10.63;5.90;;;;;;;;;;10429021;28;20027;-73
2023/05/09 19:45:22;;;;;;;9.52;5.00;;;;;;;;;;10428381;28;20024;-73
2023/05/09 19:50:23;;;;;;;8.77;5.25;;;;;;;;;;10428224;28;20032;-73
2023/05/09 19:55:23;;;;;;;7.25;4.90;;;;;;;;;;10428663;28;20463;-73
2023/05/09 20:00:23;;;;;;;6.13;4.57;;;;;;;;;;10424489;28;20038;-72
2023/05/09 20:05:23;;;;;;;8.93;5.25;;;;;;;;;;10455079;28;20510;-72
2023/05/09 20:10:24;;;;;;;7.95;4.63;;;;;;;;;;10421577;28;20134;-73
2023/05/09 20:15:24;;;;;;;6.43;4.53;;;;;;;;;;10386484;28;20122;-73
2023/05/09 20:20:25;;;;;;;7.78;4.60;;;;;;;;;;10399136;28;20363;-74
2023/05/09 20:25:25;;;;;;;8.40;4.60;;;;;;;;;;10397964;28;20048;-73
2023/05/09 20:30:25;;;;;;;10.50;5.35;;;;;;;;;;10377443;28;20484;-77
2023/05/09 20:35:26;;;;;;;8.38;5.15;;;;;;;;;;10401407;28;20425;-73
2023/05/09 20:40:27;;;;;;;7.93;4.90;;;;;;;;;;10392640;28;20032;-73
2023/05/09 20:50:31;;;;;;;11.25;6.15;;;;;;;;;;10395746;28;20048;-75
2023/05/09 20:55:32;;;;;;;10.02;6.35;;;;;;;;;;10395826;28;20043;-75
2023/05/09 21:00:32;;;;;;;8.50;6.00;;;;;;;;;;10403879;28;20394;-75
2023/05/09 21:05:32;;;;;;;14.38;7.05;;;;;;;;;;10395715;28;20041;-75
2023/05/09 21:10:33;;;;;;;9.52;6.68;;;;;;;;;;10397973;28;20021;-75
2023/05/09 21:15:33;;;;;;;15.40;8.05;;;;;;;;;;10395106;28;20037;-75
2023/05/09 21:20:33;;;;;;;12.73;7.90;;;;;;;;;;10403804;28;20036;-75
2023/05/09 21:25:34;;;;;;;13.27;7.78;;;;;;;;;;10397677;28;20283;-75
2023/05/09 21:30:34;;;;;;;13.50;7.60;;;;;;;;;;10397403;28;20040;-75
2023/05/09 21:35:34;;;;;;;12.50;8.13;;;;;;;;;;10425071;28;20526;-75
2023/05/09 21:40:35;;;;;;;13.27;7.78;;;;;;;;;;10455432;28;20370;-74
2023/05/09 21:45:35;;;;;;;11.95;7.05;;;;;;;;;;10457186;28;20036;-74
2023/05/09 21:50:35;;;;;;;13.82;7.50;;;;;;;;;;10460793;28;20115;-74
2023/05/09 21:55:36;;;;;;;12.23;7.75;;;;;;;;;;10450977;28;20024;-74
2023/05/09 22:00:36;;;;;;;10.77;6.97;;;;;;;;;;10452718;28;20469;-74
2023/05/09 22:05:36;;;;;;;12.02;6.07;;;;;;;;;;10442980;28;20036;-74
2023/05/09 22:10:36;;;;;;;9.05;5.47;;;;;;;;;;10452950;28;20024;-74
2023/05/09 22:15:37;;;;;;;8.00;5.30;;;;;;;;;;10463362;28;20032;-74
2023/05/09 22:20:37;;;;;;;8.57;5.25;;;;;;;;;;10446284;28;20400;-74
2023/05/09 22:25:37;;;;;;;6.45;4.22;;;;;;;;;;10463267;28;20020;-74
2023/05/09 22:30:38;;;;;;;7.78;5.20;;;;;;;;;;10457696;28;20112;-74
2023/05/09 22:35:38;;;;;;;9.27;4.78;;;;;;;;;;10387675;28;20094;-74
2023/05/09 22:40:38;;;;;;;12.60;6.47;;;;;;;;;;10462957;28;20024;-74
2023/05/09 22:45:39;;;;;;;12.48;7.35;;;;;;;;;;10462866;28;20039;-74
2023/05/09 22:50:39;;;;;;;11.25;6.88;;;;;;;;;;10462271;28;20510;-74
2023/05/09 22:55:40;;;;;;;12.73;7.40;;;;;;;;;;10462100;28;20481;-74
2023/05/09 23:00:40;;;;;;;15.98;8.68;;;;;;;;;;10462349;28;20028;-74
2023/05/09 23:05:42;;;;;;;13.60;8.15;;;;;;;;;;10462398;28;20420;-74
2023/05/09 23:10:42;;;;;;;14.27;8.32;;;;;;;;;;10436508;28;20109;-74
2023/05/09 23:15:43;;;;;;;15.18;7.65;;;;;;;;;;10439736;28;20024;-74
2023/05/09 23:20:46;;;;;;;12.38;5.93;;;;;;;;;;10461836;28;20024;-74
2023/05/09 23:25:46;;;;;;;11.82;6.80;;;;;;;;;;10462309;28;20033;-74
2023/05/09 23:30:46;;;;;;;12.50;7.72;;;;;;;;;;10456275;28;20013;-74
2023/05/09 23:35:47;;;;;;;13.30;7.97;;;;;;;;;;10462118;28;20413;-74
2023/05/09 23:40:47;;;;;;;11.85;6.30;;;;;;;;;;10433360;28;20055;-73
2023/05/09 23:45:48;;;;;;;11.93;6.70;;;;;;;;;;10408593;28;20478;-73
2023/05/09 23:50:51;;;;;;;12.45;7.28;;;;;;;;;;10462201;28;20383;-73
2023/05/09 23:55:51;;;;;;;13.88;8.00;;;;;;;;;;10469298;28;20032;-73
